Terminal Aerodrome Forecast
Issued by NWS

Home | Current Version | Previous Version | Text Only | Print | Product List | Glossary On
Versions: 1 2 3 4 5 6 7 8 9 10 11 12 13 14 15 16
000
FTUS46 KMTR 291700
TAFSJC
TAF
KSJC 291736Z 2918/3018 31004KT P6SM FEW200
     FM292100 31012KT P6SM FEW250
     FM300500 30006KT P6SM FEW250
     FM301200 00000KT P6SM BKN250=

USA.gov is the U.S. government's official web portal to all federal, state and local government web resources and services.